createdAt,value
2019-04-21T00:00:31.860Z,11.00
2019-04-21T00:05:55.733Z,11.80
2019-04-21T00:08:33.406Z,11.43
2019-04-21T00:10:56.708Z,10.43
2019-04-21T00:13:25.363Z,10.58
2019-04-21T00:15:48.882Z,10.80
2019-04-21T00:18:16.136Z,10.58
2019-04-21T00:20:51.181Z,11.57
2019-04-21T00:23:39.763Z,10.70
2019-04-21T00:26:02.006Z,10.90
2019-04-21T00:28:47.483Z,10.60
2019-04-21T00:31:12.653Z,11.63
2019-04-21T00:33:30.787Z,10.35
2019-04-21T00:36:05.365Z,11.03
2019-04-21T00:39:03.128Z,11.00
2019-04-21T00:41:27.678Z,10.48
2019-04-21T00:43:49.390Z,12.03
2019-04-21T00:46:17.520Z,10.65
2019-04-21T00:48:59.250Z,11.65
2019-04-21T00:51:43.572Z,9.90
2019-04-21T00:54:15.183Z,11.28
2019-04-21T00:56:41.364Z,10.13
2019-04-21T00:59:13.650Z,11.35
2019-04-21T01:01:40.135Z,11.63
2019-04-21T01:04:13.925Z,11.83
2019-04-21T01:06:48.079Z,10.75
2019-04-21T01:09:18.381Z,11.22
2019-04-21T01:11:49.256Z,12.05
2019-04-21T01:14:32.865Z,10.48
2019-04-21T01:16:51.488Z,10.75
2019-04-21T01:19:21.121Z,9.70
2019-04-21T01:21:33.461Z,9.93
2019-04-21T01:24:11.431Z,10.35
2019-04-21T01:26:48.369Z,9.23
2019-04-21T01:29:19.342Z,10.80
2019-04-21T01:32:05.145Z,10.90
2019-04-21T01:34:37.693Z,12.20
2019-04-21T01:37:00.091Z,11.65
2019-04-21T01:39:43.642Z,11.97
2019-04-21T01:42:03.296Z,10.15
2019-04-21T01:44:44.602Z,11.63
2019-04-21T01:47:06.105Z,11.12
2019-04-21T01:49:29.615Z,10.23
2019-04-21T01:54:55.976Z,10.32
2019-04-21T01:57:37.459Z,10.30
2019-04-21T02:00:06.387Z,10.08
2019-04-21T02:02:54.861Z,10.65
2019-04-21T02:05:28.418Z,10.00
2019-04-21T02:07:50.804Z,11.38
2019-04-21T02:10:32.104Z,9.45
2019-04-21T02:12:59.423Z,11.30
2019-04-21T02:15:33.043Z,11.35
2019-04-21T02:17:59.691Z,10.08
2019-04-21T02:20:24.502Z,10.55
2019-04-21T02:25:50.840Z,10.50
2019-04-21T02:28:12.088Z,10.58
2019-04-21T02:33:26.051Z,10.43
2019-04-21T02:36:00.733Z,10.20
2019-04-21T02:40:51.897Z,11.00
2019-04-21T02:43:24.950Z,10.98
2019-04-21T02:46:05.446Z,10.75
2019-04-21T02:48:50.880Z,11.05
2019-04-21T02:51:03.907Z,12.68
2019-04-21T02:54:03.799Z,13.38
2019-04-21T02:56:09.777Z,12.18
2019-04-21T02:58:53.127Z,12.37
2019-04-21T03:01:40.399Z,13.22
2019-04-21T03:04:13.637Z,14.87
2019-04-21T03:07:07.050Z,12.93
2019-04-21T03:09:35.861Z,12.98
2019-04-21T03:12:04.958Z,14.05
2019-04-21T03:17:09.658Z,12.85
2019-04-21T03:22:20.031Z,14.07
2019-04-21T03:24:54.099Z,14.38
2019-04-21T03:29:48.269Z,15.10
2019-04-21T03:35:34.468Z,14.47
2019-04-21T03:37:32.983Z,12.85
2019-04-21T03:39:54.144Z,14.15
2019-04-21T03:42:25.602Z,15.05
2019-04-21T03:52:29.730Z,16.95
2019-04-21T03:55:41.384Z,20.20
2019-04-21T03:58:10.735Z,20.65
2019-04-21T04:00:33.717Z,20.00
2019-04-21T04:03:10.509Z,19.90
2019-04-21T04:05:47.867Z,20.50
2019-04-21T04:08:22.640Z,20.27
2019-04-21T04:10:42.792Z,19.57
2019-04-21T04:13:19.915Z,19.27
2019-04-21T04:15:52.681Z,20.23
2019-04-21T04:18:20.984Z,16.90
2019-04-21T04:20:46.591Z,20.43
2019-04-21T04:23:42.154Z,19.37
2019-04-21T04:25:49.386Z,19.42
2019-04-21T04:28:28.823Z,20.40
2019-04-21T04:30:52.106Z,20.50
2019-04-21T04:38:44.463Z,22.73
2019-04-21T04:41:33.436Z,21.45
2019-04-21T04:43:51.886Z,23.50
2019-04-21T04:46:20.292Z,23.38
2019-04-21T04:48:51.379Z,22.42
2019-04-21T04:51:25.255Z,21.73
2019-04-21T04:53:47.030Z,22.07
2019-04-21T04:56:31.708Z,23.95
2019-04-21T05:01:32.792Z,22.35
2019-04-21T05:04:06.384Z,17.60
2019-04-21T05:19:23.866Z,14.45
2019-04-21T05:21:42.290Z,12.07
2019-04-21T05:23:59.858Z,12.03
2019-04-21T05:26:33.169Z,12.82
2019-04-21T05:29:01.903Z,11.35
2019-04-21T05:32:04.985Z,11.00
2019-04-21T05:34:31.879Z,11.55
2019-04-21T05:37:18.721Z,11.05
2019-04-21T05:44:58.150Z,12.98
2019-04-21T05:47:26.589Z,13.75
2019-04-21T05:50:02.398Z,11.93
2019-04-21T05:52:26.491Z,10.80
2019-04-21T05:55:09.385Z,10.03
2019-04-21T05:57:44.207Z,10.20
2019-04-21T06:00:15.626Z,10.55
2019-04-21T06:02:50.996Z,14.10
2019-04-21T06:05:20.660Z,15.48
2019-04-21T06:07:46.206Z,14.87
2019-04-21T06:10:20.386Z,17.57
2019-04-21T06:13:03.974Z,15.55
2019-04-21T06:15:34.487Z,13.35
2019-04-21T06:18:01.034Z,11.25
2019-04-21T06:20:28.794Z,11.60
2019-04-21T06:23:06.257Z,13.13
2019-04-21T06:28:10.870Z,8.25
2019-04-21T06:30:42.612Z,6.83
2019-04-21T06:33:01.896Z,9.18
2019-04-21T06:36:19.729Z,8.70
2019-04-21T06:38:55.216Z,8.43
2019-04-21T06:41:22.760Z,7.87
2019-04-21T06:43:56.271Z,11.20
2019-04-21T06:46:26.180Z,6.70
2019-04-21T06:48:58.349Z,6.90
2019-04-21T06:51:27.970Z,7.67
2019-04-21T06:56:36.517Z,4.42
2019-04-21T07:01:36.051Z,4.72
2019-04-21T07:04:13.442Z,5.17
2019-04-21T07:06:40.422Z,2.62
2019-04-21T07:09:16.269Z,3.17
2019-04-21T07:11:41.235Z,3.52
2019-04-21T07:14:30.021Z,3.47
2019-04-21T07:16:46.365Z,4.80
2019-04-21T07:19:20.418Z,4.53
2019-04-21T07:21:45.782Z,4.92
2019-04-21T07:24:21.596Z,4.50
2019-04-21T07:26:51.257Z,3.20
2019-04-21T07:29:22.071Z,3.50
2019-04-21T07:31:58.726Z,4.65
2019-04-21T07:34:29.001Z,3.80
2019-04-21T07:36:56.439Z,3.67
2019-04-21T07:39:27.088Z,3.70
2019-04-21T07:41:53.296Z,8.95
2019-04-21T07:44:28.742Z,5.60
2019-04-21T07:46:55.443Z,3.58
2019-04-21T07:49:39.696Z,3.42
2019-04-21T07:52:37.676Z,3.22
2019-04-21T07:55:16.671Z,3.40
2019-04-21T07:57:31.643Z,4.28
2019-04-21T08:00:16.619Z,3.35
2019-04-21T08:02:38.538Z,3.25
2019-04-21T08:07:48.191Z,4.25
2019-04-21T08:10:12.022Z,3.17
2019-04-21T08:12:37.962Z,3.52
2019-04-21T08:15:24.982Z,3.62
2019-04-21T08:17:46.942Z,3.33
2019-04-21T08:22:51.065Z,4.00
2019-04-21T08:25:22.278Z,4.33
2019-04-21T08:27:56.870Z,4.25
2019-04-21T08:36:06.105Z,3.65
2019-04-21T08:38:02.130Z,3.90
2019-04-21T08:40:36.691Z,3.20
2019-04-21T08:50:37.284Z,4.50
2019-04-21T08:53:29.796Z,4.28
2019-04-21T08:58:30.926Z,4.08
2019-04-21T09:01:00.854Z,4.65
2019-04-21T09:03:52.070Z,4.28
2019-04-21T09:06:27.822Z,4.60
2019-04-21T09:08:55.442Z,4.10
2019-04-21T09:11:22.586Z,4.33
2019-04-21T09:13:57.238Z,4.90
2019-04-21T09:16:24.911Z,4.75
2019-04-21T09:18:54.182Z,4.70
2019-04-21T09:21:42.328Z,4.12
2019-04-21T09:24:10.286Z,4.20
2019-04-21T09:26:35.573Z,4.25
2019-04-21T09:29:00.439Z,4.55
2019-04-21T09:31:28.257Z,4.47
2019-04-21T09:33:58.698Z,4.30
2019-04-21T09:36:36.182Z,4.05
2019-04-21T09:39:06.639Z,3.83
2019-04-21T09:41:30.325Z,4.42
2019-04-21T09:44:01.735Z,4.00
2019-04-21T09:46:35.501Z,3.67
2019-04-21T09:49:08.614Z,4.50
2019-04-21T09:51:37.173Z,3.70
2019-04-21T09:54:12.626Z,3.85
2019-04-21T09:59:18.036Z,3.90
2019-04-21T10:01:57.511Z,4.00
2019-04-21T10:04:14.258Z,4.37
2019-04-21T10:06:45.314Z,4.55
2019-04-21T10:09:19.393Z,5.50
2019-04-21T10:11:48.147Z,4.10
2019-04-21T10:14:19.465Z,3.85
2019-04-21T10:16:56.766Z,4.08
2019-04-21T10:19:27.439Z,4.78
2019-04-21T10:21:59.517Z,5.35
2019-04-21T10:24:31.084Z,4.12
2019-04-21T10:27:03.713Z,4.33
2019-04-21T10:29:34.587Z,3.95
2019-04-21T10:32:05.784Z,4.30
2019-04-21T10:34:37.150Z,4.55
2019-04-21T10:37:07.464Z,3.70
2019-04-21T10:39:37.751Z,4.65
2019-04-21T10:42:09.034Z,4.45
2019-04-21T10:44:39.345Z,4.40
2019-04-21T10:47:10.957Z,4.08
2019-04-21T10:49:42.213Z,4.37
2019-04-21T10:52:15.104Z,4.35
2019-04-21T10:55:06.923Z,4.03
2019-04-21T10:57:22.270Z,7.60
2019-04-21T10:59:55.529Z,4.87
2019-04-21T11:02:26.417Z,4.65
2019-04-21T11:04:56.917Z,4.83
2019-04-21T11:07:55.352Z,4.90
2019-04-21T11:10:16.143Z,5.50
2019-04-21T11:12:47.871Z,6.40
2019-04-21T11:15:19.078Z,5.75
2019-04-21T11:17:50.631Z,5.23
2019-04-21T11:20:20.865Z,5.17
2019-04-21T11:22:51.377Z,4.87
2019-04-21T11:25:22.050Z,5.03
2019-04-21T11:27:53.166Z,4.87
2019-04-21T11:30:23.453Z,5.55
2019-04-21T11:32:55.161Z,4.50
2019-04-21T11:35:25.957Z,5.40
2019-04-21T11:38:06.156Z,4.92
2019-04-21T11:40:29.649Z,14.65
2019-04-21T11:43:01.918Z,5.87
2019-04-21T11:45:36.947Z,5.05
2019-04-21T11:48:28.321Z,4.65
2019-04-21T11:50:59.234Z,4.47
2019-04-21T11:53:30.756Z,4.37
2019-04-21T11:56:01.266Z,4.83
2019-04-21T11:58:31.976Z,4.05
2019-04-21T12:01:03.420Z,4.10
2019-04-21T12:03:33.738Z,4.17
2019-04-21T12:06:03.967Z,4.50
2019-04-21T12:08:40.380Z,4.00
2019-04-21T12:11:05.705Z,3.77
2019-04-21T12:13:36.193Z,4.30
2019-04-21T12:16:07.238Z,4.08
2019-04-21T12:18:38.717Z,4.20
2019-04-21T12:21:09.375Z,4.55
2019-04-21T12:23:40.553Z,3.80
2019-04-21T12:26:10.929Z,4.03
2019-04-21T12:28:41.856Z,3.92
2019-04-21T12:31:21.174Z,4.10
2019-04-21T12:33:58.575Z,4.70
2019-04-21T12:36:29.615Z,7.03
2019-04-21T12:39:03.205Z,4.83
2019-04-21T12:41:33.154Z,4.67
2019-04-21T12:44:04.639Z,4.17
2019-04-21T12:46:35.916Z,12.55
2019-04-21T12:49:07.527Z,8.18
2019-04-21T12:54:08.074Z,7.62
2019-04-21T12:56:38.462Z,9.45
2019-04-21T12:59:09.921Z,5.35
2019-04-21T13:01:41.166Z,4.95
2019-04-21T13:04:11.459Z,5.57
2019-04-21T13:06:41.687Z,5.10
2019-04-21T13:09:16.137Z,3.90
2019-04-21T13:11:44.592Z,5.20
2019-04-21T13:14:15.730Z,4.30
2019-04-21T13:16:46.082Z,4.35
2019-04-21T13:19:17.422Z,5.22
2019-04-21T13:21:47.982Z,3.90
2019-04-21T13:24:18.296Z,7.90
2019-04-21T13:26:53.617Z,5.03
2019-04-21T13:29:20.503Z,4.28
2019-04-21T13:31:51.817Z,4.37
2019-04-21T13:34:22.307Z,5.03
2019-04-21T13:36:53.798Z,4.50
2019-04-21T13:39:50.682Z,6.67
2019-04-21T13:42:13.402Z,17.75
2019-04-21T13:44:37.114Z,6.42
2019-04-21T13:47:07.331Z,4.67
2019-04-21T13:49:37.405Z,11.25
2019-04-21T13:52:08.839Z,4.53
2019-04-21T13:54:39.847Z,6.08
2019-04-21T13:57:10.475Z,5.15
2019-04-21T13:59:40.756Z,5.03
2019-04-21T14:02:11.633Z,5.30
2019-04-21T14:07:14.585Z,5.95
2019-04-21T14:09:54.824Z,5.78
2019-04-21T14:12:17.232Z,5.47
2019-04-21T14:14:48.345Z,4.80
2019-04-21T14:17:19.176Z,5.15
2019-04-21T14:19:50.965Z,5.67
2019-04-21T14:22:23.915Z,4.37
2019-04-21T14:24:56.163Z,5.60
2019-04-21T14:27:26.354Z,5.42
2019-04-21T14:29:57.683Z,5.90
2019-04-21T14:32:29.598Z,4.97
2019-04-21T14:35:00.914Z,5.75
2019-04-21T14:37:31.102Z,5.63
2019-04-21T14:40:06.955Z,5.80
2019-04-21T14:42:34.004Z,7.05
2019-04-21T14:45:07.017Z,6.53
2019-04-21T14:47:39.942Z,5.72
2019-04-21T14:50:30.444Z,9.50
2019-04-21T14:53:15.893Z,6.72
2019-04-21T14:55:47.006Z,7.80
2019-04-21T14:58:17.291Z,11.73
2019-04-21T15:00:52.969Z,12.20
2019-04-21T15:03:25.687Z,13.03
2019-04-21T15:05:57.643Z,9.05
2019-04-21T15:08:28.980Z,10.78
2019-04-21T15:10:59.442Z,6.05
2019-04-21T15:13:30.045Z,10.95
2019-04-21T15:16:00.656Z,7.12
2019-04-21T15:18:32.803Z,8.25
2019-04-21T15:21:03.709Z,9.38
2019-04-21T15:23:34.031Z,17.07
2019-04-21T15:26:04.390Z,10.28
2019-04-21T15:28:36.990Z,11.43
2019-04-21T15:31:06.218Z,16.50
2019-04-21T15:33:36.976Z,10.13
2019-04-21T15:36:07.224Z,13.88
2019-04-21T15:38:38.089Z,10.60
2019-04-21T15:41:10.546Z,9.08
2019-04-21T15:43:40.595Z,6.85
2019-04-21T15:46:11.005Z,6.97
2019-04-21T15:48:41.396Z,7.10
2019-04-21T15:51:11.594Z,7.87
2019-04-21T15:53:43.864Z,7.62
2019-04-21T15:56:17.222Z,6.12
2019-04-21T15:58:56.675Z,6.42
2019-04-21T16:01:28.587Z,6.35
2019-04-21T16:04:02.495Z,7.92
2019-04-21T16:06:32.512Z,6.67
2019-04-21T16:09:04.346Z,7.70
2019-04-21T16:11:35.664Z,7.05
2019-04-21T16:14:06.097Z,8.68
2019-04-21T16:16:36.220Z,7.10
2019-04-21T16:19:06.277Z,6.70
2019-04-21T16:21:40.264Z,7.08
2019-04-21T16:24:08.776Z,6.70
2019-04-21T16:26:40.526Z,7.92
2019-04-21T16:29:11.347Z,6.65
2019-04-21T16:31:42.661Z,7.33
2019-04-21T16:34:13.766Z,7.50
2019-04-21T16:36:45.590Z,9.00
2019-04-21T16:39:15.968Z,10.15
2019-04-21T16:41:46.590Z,12.33
2019-04-21T16:44:17.048Z,12.85
2019-04-21T16:46:47.554Z,12.90
2019-04-21T16:49:18.022Z,13.18
2019-04-21T16:51:50.051Z,12.82
2019-04-21T16:54:26.107Z,14.35
2019-04-21T16:57:01.851Z,15.48
2019-04-21T16:59:34.695Z,15.98
2019-04-21T17:02:05.047Z,14.78
2019-04-21T17:04:36.352Z,15.25
2019-04-21T17:07:07.329Z,13.85
2019-04-21T17:09:38.829Z,13.62
2019-04-21T17:12:13.734Z,13.20
2019-04-21T17:14:53.543Z,12.05
2019-04-21T17:17:32.656Z,11.75
2019-04-21T17:19:48.494Z,11.88
2019-04-21T17:22:17.560Z,11.88
2019-04-21T17:24:48.514Z,11.35
2019-04-21T17:27:18.717Z,11.30
2019-04-21T17:29:48.836Z,11.33
2019-04-21T17:32:20.346Z,11.18
2019-04-21T17:34:50.541Z,12.28
2019-04-21T17:37:24.982Z,12.30
2019-04-21T17:39:54.535Z,14.33
2019-04-21T17:42:35.427Z,14.55
2019-04-21T17:44:57.328Z,15.98
2019-04-21T17:47:41.500Z,16.07
2019-04-21T17:50:09.404Z,19.52
2019-04-21T17:52:56.302Z,20.92
2019-04-21T17:58:13.241Z,19.75
2019-04-21T18:03:39.073Z,19.02
2019-04-21T18:05:54.626Z,17.60
2019-04-21T18:08:29.516Z,13.93
2019-04-21T18:10:54.362Z,12.65
2019-04-21T18:13:19.099Z,13.05
2019-04-21T18:15:55.797Z,12.43
2019-04-21T18:18:18.622Z,11.88
2019-04-21T18:20:54.997Z,13.35
2019-04-21T18:23:40.859Z,11.93
2019-04-21T18:26:06.075Z,12.40
2019-04-21T18:28:30.548Z,12.73
2019-04-21T18:31:04.542Z,12.98
2019-04-21T18:33:40.352Z,13.38
2019-04-21T18:36:21.297Z,12.73
2019-04-21T18:39:12.686Z,12.28
2019-04-21T18:41:42.708Z,13.72
2019-04-21T18:44:41.753Z,13.43
2019-04-21T18:47:12.182Z,12.15
2019-04-21T18:49:29.018Z,13.90
2019-04-21T18:52:20.714Z,14.20
2019-04-21T18:54:58.179Z,14.40
2019-04-21T18:57:26.602Z,16.00
2019-04-21T18:59:47.626Z,15.00
2019-04-21T19:02:20.760Z,14.70
2019-04-21T19:04:53.585Z,14.23
2019-04-21T19:07:37.812Z,14.00
2019-04-21T19:10:29.686Z,14.10
2019-04-21T19:13:17.484Z,13.83
2019-04-21T19:15:12.273Z,12.40
2019-04-21T19:20:19.411Z,13.03
2019-04-21T19:22:51.016Z,13.62
2019-04-21T19:25:23.877Z,13.25
2019-04-21T19:27:55.391Z,13.95
2019-04-21T19:30:36.374Z,14.07
2019-04-21T19:32:58.019Z,12.93
2019-04-21T19:35:15.235Z,13.88
2019-04-21T19:37:56.433Z,14.73
2019-04-21T19:40:34.064Z,16.97
2019-04-21T19:42:57.971Z,17.67
2019-04-21T19:45:35.462Z,19.45
2019-04-21T19:48:15.335Z,16.77
2019-04-21T19:50:47.031Z,16.27
2019-04-21T19:53:08.790Z,15.00
2019-04-21T19:55:29.979Z,15.80
2019-04-21T19:58:00.985Z,13.93
2019-04-21T20:00:32.492Z,14.73
2019-04-21T20:03:03.085Z,15.08
2019-04-21T20:08:20.557Z,15.30
2019-04-21T20:10:55.285Z,16.17
2019-04-21T20:13:41.972Z,14.70
2019-04-21T20:16:01.399Z,14.75
2019-04-21T20:18:23.276Z,15.35
2019-04-21T20:20:45.990Z,14.70
2019-04-21T20:23:22.832Z,14.50
2019-04-21T20:25:54.387Z,14.58
2019-04-21T20:28:33.151Z,14.47
2019-04-21T20:31:06.668Z,14.07
2019-04-21T20:36:15.905Z,17.05
2019-04-21T20:38:35.551Z,16.50
2019-04-21T20:41:07.738Z,16.62
2019-04-21T20:43:45.663Z,16.37
2019-04-21T20:46:22.565Z,16.45
2019-04-21T20:48:51.229Z,15.70
2019-04-21T20:51:21.888Z,17.57
2019-04-21T20:53:56.575Z,16.05
2019-04-21T20:56:19.312Z,18.55
2019-04-21T20:58:59.746Z,19.73
2019-04-21T21:01:45.830Z,20.23
2019-04-21T21:03:57.662Z,17.77
2019-04-21T21:06:31.656Z,16.73
2019-04-21T21:09:07.370Z,17.90
2019-04-21T21:11:43.550Z,16.70
2019-04-21T21:14:13.118Z,15.80
2019-04-21T21:16:46.384Z,16.17
2019-04-21T21:21:44.181Z,17.70
2019-04-21T21:24:22.204Z,19.62
2019-04-21T21:26:52.329Z,19.57
2019-04-21T21:29:23.763Z,18.30
2019-04-21T21:31:55.550Z,17.37
2019-04-21T21:34:28.071Z,16.97
2019-04-21T21:37:03.005Z,17.27
2019-04-21T21:39:31.817Z,17.57
2019-04-21T21:41:49.744Z,18.65
2019-04-21T21:44:20.026Z,19.75
2019-04-21T21:46:59.490Z,21.15
2019-04-21T21:49:35.593Z,22.55
2019-04-21T21:51:59.203Z,25.27
2019-04-21T21:54:23.227Z,27.77
2019-04-21T21:56:54.390Z,26.23
2019-04-21T21:59:28.362Z,26.70
2019-04-21T22:01:57.871Z,20.57
2019-04-21T22:04:31.863Z,20.65
2019-04-21T22:07:04.400Z,21.35
2019-04-21T22:09:32.380Z,23.67
2019-04-21T22:12:06.302Z,23.20
2019-04-21T22:14:41.693Z,21.52
2019-04-21T22:17:23.718Z,23.22
2019-04-21T22:20:03.302Z,21.52
2019-04-21T22:22:23.191Z,21.93
2019-04-21T22:24:53.507Z,18.65
2019-04-21T22:27:13.358Z,20.57
2019-04-21T22:29:48.205Z,18.57
2019-04-21T22:32:19.235Z,17.42
2019-04-21T22:34:53.745Z,14.55
2019-04-21T22:37:34.831Z,13.78
2019-04-21T22:40:04.728Z,13.25
2019-04-21T22:42:31.239Z,11.80
2019-04-21T22:44:56.545Z,12.18
2019-04-21T22:47:33.798Z,13.08
2019-04-21T22:49:58.879Z,11.22
2019-04-21T22:52:30.488Z,11.08
2019-04-21T22:55:08.224Z,11.57
2019-04-21T22:57:40.813Z,11.53
2019-04-21T23:00:10.733Z,10.85
2019-04-21T23:02:41.095Z,11.00
2019-04-21T23:05:15.614Z,10.10
2019-04-21T23:07:50.231Z,10.93
2019-04-21T23:10:15.452Z,10.20
2019-04-21T23:12:45.840Z,8.75
2019-04-21T23:15:19.508Z,10.48
2019-04-21T23:18:05.247Z,10.35
2019-04-21T23:20:42.002Z,10.38
2019-04-21T23:25:40.564Z,10.35
2019-04-21T23:28:10.198Z,10.63
2019-04-21T23:30:49.801Z,10.93
2019-04-21T23:33:04.550Z,10.25
2019-04-21T23:35:35.200Z,10.75
2019-04-21T23:38:04.730Z,10.65
2019-04-21T23:40:33.338Z,10.28
2019-04-21T23:43:09.308Z,10.53
2019-04-21T23:45:38.249Z,11.08
2019-04-21T23:48:18.270Z,10.20
2019-04-21T23:50:49.314Z,10.63
2019-04-21T23:53:11.199Z,10.68
2019-04-21T23:55:41.305Z,11.57
2019-04-21T23:58:18.060Z,10.55
